createdAt,value
2023-04-19T00:01:34.069Z,13.71
2023-04-19T00:04:05.248Z,13.11
2023-04-19T00:06:35.279Z,13.91
2023-04-19T00:09:05.045Z,13.84
2023-04-19T00:11:34.269Z,13.25
2023-04-19T00:14:03.882Z,13.43
2023-04-19T00:16:33.052Z,13.84
2023-04-19T00:19:03.969Z,14.33
2023-04-19T00:21:33.259Z,14.04
2023-04-19T00:24:04.833Z,14.26
2023-04-19T00:26:34.068Z,14.36
2023-04-19T00:29:03.841Z,14.62
2023-04-19T00:31:32.900Z,14.38
2023-04-19T00:34:03.874Z,14.07
2023-04-19T00:36:33.093Z,14.02
2023-04-19T00:39:02.611Z,13.87
2023-04-19T00:41:31.922Z,13.56
2023-04-19T00:44:01.292Z,13.82
2023-04-19T00:46:30.770Z,13.70
2023-04-19T00:49:03.977Z,13.95
2023-04-19T00:51:35.535Z,14.05
2023-04-19T00:54:07.285Z,13.93
2023-04-19T00:56:37.087Z,14.16
2023-04-19T00:59:06.769Z,13.98
2023-04-19T01:01:36.015Z,13.91
2023-04-19T01:04:07.348Z,14.24
2023-04-19T01:06:36.992Z,14.07
2023-04-19T01:09:06.781Z,13.87
2023-04-19T01:11:36.288Z,13.47
2023-04-19T01:14:05.739Z,13.97
2023-04-19T01:16:36.533Z,14.12
2023-04-19T01:19:07.417Z,14.21
2023-04-19T01:21:39.621Z,13.99
2023-04-19T01:24:10.919Z,14.09
2023-04-19T01:26:40.377Z,14.17
2023-04-19T01:29:09.835Z,13.85
2023-04-19T01:31:40.606Z,13.70
2023-04-19T01:34:10.070Z,13.95
2023-04-19T01:36:41.099Z,13.92
2023-04-19T01:39:12.096Z,13.77
2023-04-19T01:41:42.459Z,13.63
2023-04-19T01:44:12.919Z,13.63
2023-04-19T01:46:42.825Z,14.14
2023-04-19T01:49:12.499Z,13.82
2023-04-19T01:51:41.764Z,14.09
2023-04-19T01:54:12.774Z,13.67
2023-04-19T01:56:42.031Z,13.42
2023-04-19T01:59:12.642Z,13.51
2023-04-19T02:01:42.189Z,13.65
2023-04-19T02:04:11.694Z,13.63
2023-04-19T02:06:40.795Z,13.51
2023-04-19T02:09:11.713Z,13.33
2023-04-19T02:11:44.558Z,13.24
2023-04-19T02:14:14.391Z,13.66
2023-04-19T02:16:44.723Z,13.24
2023-04-19T02:19:14.912Z,13.57
2023-04-19T02:21:44.024Z,13.48
2023-04-19T02:24:18.478Z,12.95
2023-04-19T02:26:47.635Z,13.13
2023-04-19T02:29:18.127Z,13.26
2023-04-19T02:36:20.038Z,12.94
2023-04-19T02:38:49.493Z,13.12
2023-04-19T02:41:20.362Z,12.90
2023-04-19T02:43:49.998Z,12.83
2023-04-19T02:46:19.774Z,12.72
2023-04-19T02:48:49.320Z,12.99
2023-04-19T02:51:18.826Z,13.00
2023-04-19T02:53:48.673Z,13.05
2023-04-19T02:56:19.228Z,13.02
2023-04-19T02:58:49.800Z,12.86
2023-04-19T03:01:19.202Z,13.06
2023-04-19T03:03:48.831Z,13.09
2023-04-19T03:06:18.074Z,13.12
2023-04-19T03:08:47.843Z,13.19
2023-04-19T03:11:21.253Z,13.07
2023-04-19T03:13:50.650Z,12.63
2023-04-19T03:16:20.633Z,12.96
2023-04-19T03:18:50.587Z,12.95
2023-04-19T03:21:27.193Z,12.64
2023-04-19T03:23:56.963Z,12.84
2023-04-19T03:26:28.782Z,13.21
2023-04-19T03:29:00.000Z,12.95
2023-04-19T03:31:44.851Z,13.22
2023-04-19T03:34:15.891Z,13.40
2023-04-19T03:36:48.074Z,13.53
2023-04-19T03:39:17.480Z,13.07
2023-04-19T03:41:51.812Z,13.16
2023-04-19T03:44:29.007Z,13.30
2023-04-19T03:46:58.146Z,13.32
2023-04-19T03:49:31.577Z,13.44
2023-04-19T03:52:06.971Z,13.35
2023-04-19T03:54:37.363Z,13.51
2023-04-19T03:57:13.157Z,13.91
2023-04-19T03:59:43.036Z,13.09
2023-04-19T04:02:12.669Z,13.39
2023-04-19T04:04:42.487Z,13.18
2023-04-19T04:07:11.924Z,13.54
2023-04-19T04:09:41.852Z,13.59
2023-04-19T04:12:13.314Z,13.77
2023-04-19T04:14:43.153Z,14.08
2023-04-19T04:17:14.184Z,14.03
2023-04-19T04:19:43.785Z,14.10
2023-04-19T04:22:13.883Z,14.48
2023-04-19T04:24:45.208Z,14.36
2023-04-19T04:27:28.391Z,14.04
2023-04-19T04:29:58.790Z,13.94
2023-04-19T04:32:28.314Z,14.31
2023-04-19T04:35:02.186Z,14.13
2023-04-19T04:37:41.378Z,14.33
2023-04-19T04:40:12.315Z,14.76
2023-04-19T04:42:42.883Z,14.58
2023-04-19T04:45:13.145Z,14.58
2023-04-19T04:47:46.330Z,14.17
2023-04-19T04:50:16.967Z,14.48
2023-04-19T04:52:46.556Z,14.51
2023-04-19T04:55:30.326Z,14.90
2023-04-19T04:58:01.461Z,14.78
2023-04-19T05:00:40.112Z,14.86
2023-04-19T05:03:11.765Z,14.86
2023-04-19T05:05:48.752Z,14.79
2023-04-19T05:08:19.335Z,14.84
2023-04-19T05:10:50.014Z,14.70
2023-04-19T05:13:20.933Z,14.48
2023-04-19T05:20:25.146Z,14.71
2023-04-19T05:23:03.562Z,14.84
2023-04-19T05:25:35.248Z,14.37
2023-04-19T05:28:05.808Z,14.25
2023-04-19T05:30:45.327Z,14.68
2023-04-19T05:33:14.911Z,14.64
2023-04-19T05:35:44.900Z,14.63
2023-04-19T05:38:14.364Z,14.75
2023-04-19T05:40:43.702Z,14.13
2023-04-19T05:43:13.213Z,15.12
2023-04-19T05:45:44.229Z,15.46
2023-04-19T05:48:13.698Z,15.10
2023-04-19T05:51:12.404Z,15.01
2023-04-19T05:53:55.866Z,15.21
2023-04-19T05:56:27.339Z,14.95
2023-04-19T05:58:56.932Z,14.61
2023-04-19T06:01:27.572Z,15.33
2023-04-19T06:03:57.655Z,15.37
2023-04-19T06:06:27.794Z,15.46
2023-04-19T06:08:57.755Z,15.46
2023-04-19T06:11:38.299Z,15.64
2023-04-19T06:14:08.717Z,15.46
2023-04-19T06:16:39.640Z,15.37
2023-04-19T06:19:10.074Z,15.05
2023-04-19T06:21:39.300Z,14.52
2023-04-19T06:24:09.307Z,15.22
2023-04-19T06:26:38.430Z,15.46
2023-04-19T06:29:07.922Z,14.82
2023-04-19T06:31:38.483Z,15.02
2023-04-19T06:34:08.035Z,15.23
2023-04-19T06:36:37.462Z,15.41
2023-04-19T06:43:42.782Z,15.58
2023-04-19T06:46:14.071Z,15.85
2023-04-19T06:48:45.018Z,15.74
2023-04-19T06:51:14.646Z,15.46
2023-04-19T06:53:44.915Z,15.17
2023-04-19T06:56:15.082Z,15.74
2023-04-19T06:58:44.339Z,15.19
2023-04-19T07:01:14.174Z,14.90
2023-04-19T07:03:47.100Z,14.85
2023-04-19T07:06:16.895Z,15.15
2023-04-19T07:08:50.185Z,15.51
2023-04-19T07:11:21.948Z,16.05
2023-04-19T07:13:52.505Z,15.81
2023-04-19T07:16:22.372Z,15.98
2023-04-19T07:18:53.126Z,16.12
2023-04-19T07:21:22.774Z,16.34
2023-04-19T07:23:51.990Z,16.13
2023-04-19T07:26:21.592Z,16.25
2023-04-19T07:28:50.786Z,15.74
2023-04-19T07:31:21.456Z,16.41
2023-04-19T07:33:52.559Z,15.93
2023-04-19T07:37:37.161Z,15.84
2023-04-19T07:40:09.389Z,15.41
2023-04-19T07:42:38.541Z,15.77
2023-04-19T07:45:15.163Z,15.64
2023-04-19T07:47:45.217Z,16.08
2023-04-19T07:50:16.282Z,16.25
2023-04-19T07:52:45.697Z,15.79
2023-04-19T07:55:15.335Z,15.71
2023-04-19T07:57:48.121Z,16.05
2023-04-19T08:00:18.680Z,15.99
2023-04-19T08:11:36.566Z,16.08
2023-04-19T08:14:40.564Z,16.31
2023-04-19T08:17:26.740Z,16.00
2023-04-19T08:19:57.384Z,16.07
2023-04-19T08:22:27.111Z,16.52
2023-04-19T08:24:56.305Z,16.79
2023-04-19T08:27:54.263Z,16.35
2023-04-19T08:30:24.764Z,16.37
2023-04-19T08:32:56.827Z,16.16
2023-04-19T08:35:27.018Z,16.34
2023-04-19T08:37:56.573Z,16.34
2023-04-19T08:40:26.185Z,15.84
2023-04-19T08:42:58.964Z,15.92
2023-04-19T08:59:19.925Z,14.78
2023-04-19T09:01:50.264Z,14.66
2023-04-19T09:04:34.551Z,15.35
2023-04-19T09:07:05.492Z,14.93
2023-04-19T09:09:43.123Z,15.11
2023-04-19T09:12:21.357Z,15.47
2023-04-19T09:23:19.746Z,14.98
2023-04-19T09:26:19.449Z,15.56
2023-04-19T09:28:58.585Z,15.12
2023-04-19T09:31:47.972Z,14.25
2023-04-19T09:34:21.768Z,14.14
2023-04-19T09:37:00.574Z,14.35
2023-04-19T09:39:40.079Z,14.68
2023-04-19T09:42:09.341Z,14.58
2023-04-19T09:47:25.177Z,14.46
2023-04-19T09:50:22.021Z,14.20
2023-04-19T09:52:53.477Z,13.63
2023-04-19T09:55:27.901Z,14.19
2023-04-19T09:57:58.544Z,13.75
2023-04-19T10:00:33.425Z,13.38
2023-04-19T10:03:10.691Z,13.47
2023-04-19T10:05:41.796Z,13.91
2023-04-19T10:08:13.163Z,13.77
2023-04-19T10:10:46.610Z,14.14
2023-04-19T10:13:25.676Z,13.80
2023-04-19T10:16:04.540Z,13.91
2023-04-19T10:23:16.620Z,13.60
2023-04-19T10:25:50.444Z,13.54
2023-04-19T10:28:19.785Z,13.27
2023-04-19T10:30:56.855Z,13.45
2023-04-19T10:33:31.178Z,13.84
2023-04-19T10:36:01.154Z,13.53
2023-04-19T10:38:41.605Z,13.78
2023-04-19T10:41:17.112Z,13.62
2023-04-19T10:44:40.995Z,13.89
2023-04-19T10:47:14.844Z,13.69
2023-04-19T10:49:47.233Z,13.82
2023-04-19T10:52:29.787Z,13.55
2023-04-19T10:54:59.242Z,13.56
2023-04-19T10:57:30.524Z,13.90
2023-04-19T11:00:19.784Z,13.66
2023-04-19T11:02:49.494Z,13.63
2023-04-19T11:05:20.387Z,14.16
2023-04-19T11:07:50.104Z,14.04
2023-04-19T11:10:31.787Z,14.15
2023-04-19T11:13:02.741Z,14.51
2023-04-19T11:15:31.879Z,14.77
2023-04-19T11:18:11.994Z,14.36
2023-04-19T11:20:45.086Z,14.66
2023-04-19T11:23:18.989Z,14.72
2023-04-19T11:25:52.743Z,15.13
2023-04-19T11:28:24.299Z,15.44
2023-04-19T11:30:55.427Z,15.17
2023-04-19T11:33:25.909Z,15.45
2023-04-19T11:35:55.183Z,15.52
2023-04-19T11:38:24.506Z,15.37
2023-04-19T11:41:01.532Z,15.53
2023-04-19T11:43:36.632Z,15.44
2023-04-19T11:46:10.524Z,15.39
2023-04-19T11:48:40.834Z,15.28
2023-04-19T11:51:10.671Z,15.13
2023-04-19T11:53:42.324Z,15.12
2023-04-19T11:56:11.723Z,15.17
2023-04-19T11:58:45.593Z,15.40
2023-04-19T12:01:16.586Z,15.38
2023-04-19T12:03:48.739Z,15.13
2023-04-19T12:06:20.284Z,15.48
2023-04-19T12:08:51.507Z,15.74
2023-04-19T12:11:24.406Z,15.36
2023-04-19T12:14:10.999Z,16.35
2023-04-19T12:16:40.504Z,16.19
2023-04-19T12:19:14.337Z,16.94
2023-04-19T12:21:44.399Z,16.96
2023-04-19T12:25:27.759Z,17.51
2023-04-19T12:27:58.160Z,16.83
2023-04-19T12:30:29.157Z,17.16
2023-04-19T12:32:59.981Z,17.52
2023-04-19T12:35:29.892Z,18.18
2023-04-19T12:38:01.023Z,18.31
2023-04-19T12:40:30.740Z,18.28
2023-04-19T12:43:00.329Z,17.88
2023-04-19T12:45:31.886Z,17.83
2023-04-19T12:48:02.371Z,17.12
2023-04-19T12:50:31.802Z,17.10
2023-04-19T12:53:01.450Z,17.61
2023-04-19T12:55:30.649Z,17.80
2023-04-19T12:58:00.220Z,18.81
2023-04-19T13:00:31.250Z,19.10
2023-04-19T13:03:01.119Z,19.42
2023-04-19T13:05:30.558Z,19.62
2023-04-19T13:08:00.302Z,19.04
2023-04-19T13:10:29.527Z,19.42
2023-04-19T13:12:59.336Z,18.53
2023-04-19T13:15:29.960Z,18.58
2023-04-19T13:17:59.511Z,18.18
2023-04-19T13:20:29.469Z,17.92
2023-04-19T13:22:59.258Z,17.78
2023-04-19T13:25:28.544Z,17.97
2023-04-19T13:27:57.955Z,18.51
2023-04-19T13:30:27.302Z,18.06
2023-04-19T13:32:58.427Z,18.10
2023-04-19T13:35:27.734Z,18.38
2023-04-19T13:37:57.283Z,18.44
2023-04-19T13:40:26.448Z,17.42
2023-04-19T13:42:56.868Z,18.06
2023-04-19T13:49:59.383Z,17.92
2023-04-19T13:52:29.039Z,17.70
2023-04-19T13:54:58.321Z,17.45
2023-04-19T13:57:27.898Z,17.74
2023-04-19T13:59:57.103Z,17.28
2023-04-19T14:02:27.065Z,17.65
2023-04-19T14:04:59.799Z,17.61
2023-04-19T14:07:29.834Z,17.62
2023-04-19T14:09:59.452Z,17.73
2023-04-19T14:12:28.937Z,17.89
2023-04-19T14:14:58.140Z,17.95
2023-04-19T14:17:27.853Z,17.96
2023-04-19T14:19:59.038Z,17.98
2023-04-19T14:22:28.707Z,17.92
2023-04-19T14:24:57.963Z,18.22
2023-04-19T14:27:27.730Z,18.00
2023-04-19T14:34:32.661Z,18.14
2023-04-19T14:37:04.840Z,18.92
2023-04-19T14:39:33.953Z,18.39
2023-04-19T14:42:03.560Z,18.73
2023-04-19T14:44:32.887Z,18.93
2023-04-19T14:47:02.586Z,19.04
2023-04-19T14:49:31.829Z,19.83
2023-04-19T14:52:01.430Z,19.84
2023-04-19T14:55:24.978Z,20.77
2023-04-19T14:57:56.407Z,21.46
2023-04-19T15:00:26.092Z,22.93
2023-04-19T15:02:55.620Z,24.71
2023-04-19T15:05:27.677Z,26.51
2023-04-19T15:07:57.478Z,26.72
2023-04-19T15:10:26.675Z,27.39
2023-04-19T15:12:58.098Z,27.32
2023-04-19T15:15:27.590Z,26.92
2023-04-19T15:17:57.976Z,27.18
2023-04-19T15:20:27.333Z,28.10
2023-04-19T15:22:56.993Z,28.66
2023-04-19T15:25:26.138Z,26.05
2023-04-19T15:27:57.282Z,27.40
2023-04-19T15:30:26.518Z,26.67
2023-04-19T15:32:56.292Z,24.51
2023-04-19T15:35:25.508Z,24.96
2023-04-19T15:37:55.130Z,25.21
2023-04-19T15:40:25.027Z,24.02
2023-04-19T15:42:55.742Z,25.98
2023-04-19T15:45:26.304Z,25.34
2023-04-19T15:47:55.883Z,26.99
2023-04-19T15:50:25.279Z,25.53
2023-04-19T15:52:54.683Z,26.13
2023-04-19T15:55:23.736Z,24.94
2023-04-19T15:57:53.168Z,25.38
2023-04-19T16:00:23.350Z,24.78
2023-04-19T16:02:54.546Z,24.51
2023-04-19T16:05:24.176Z,25.17
2023-04-19T16:08:04.104Z,24.92
2023-04-19T16:10:33.390Z,24.33
2023-04-19T16:13:04.078Z,24.10
2023-04-19T16:15:33.594Z,23.50
2023-04-19T16:18:04.707Z,23.67
2023-04-19T16:20:33.914Z,22.88
2023-04-19T16:23:03.893Z,22.95
2023-04-19T16:25:34.006Z,22.87
2023-04-19T16:28:03.367Z,22.66
2023-04-19T16:30:32.748Z,21.45
2023-04-19T16:33:03.351Z,20.73
2023-04-19T16:35:32.942Z,19.97
2023-04-19T16:38:04.446Z,19.63
2023-04-19T16:40:33.892Z,19.24
2023-04-19T16:43:03.230Z,19.53
2023-04-19T16:45:32.806Z,19.88
2023-04-19T16:48:03.907Z,19.97
2023-04-19T16:50:33.782Z,20.20
2023-04-19T16:53:02.809Z,20.10
2023-04-19T16:55:32.668Z,19.06
2023-04-19T16:58:02.025Z,19.43
2023-04-19T17:00:31.509Z,19.16
2023-04-19T17:03:01.004Z,19.71
2023-04-19T17:05:32.101Z,19.52
2023-04-19T17:08:01.342Z,19.11
2023-04-19T17:10:30.850Z,18.64
2023-04-19T17:13:00.236Z,18.59
2023-04-19T17:15:29.875Z,18.92
2023-04-19T17:17:59.265Z,18.73
2023-04-19T17:20:28.932Z,18.67
2023-04-19T17:22:59.787Z,18.47
2023-04-19T17:25:29.914Z,18.21
2023-04-19T17:27:59.256Z,17.91
2023-04-19T17:30:28.946Z,17.85
2023-04-19T17:32:58.265Z,17.89
2023-04-19T17:35:28.054Z,17.82
2023-04-19T17:37:58.783Z,17.49
2023-04-19T17:40:29.441Z,17.89
2023-04-19T17:42:58.885Z,18.03
2023-04-19T17:45:28.329Z,18.18
2023-04-19T17:47:57.664Z,18.10
2023-04-19T17:50:27.547Z,17.92
2023-04-19T17:52:58.542Z,18.26
2023-04-19T17:59:41.264Z,17.57
2023-04-19T18:02:10.950Z,16.94
2023-04-19T18:04:44.599Z,17.23
2023-04-19T18:07:14.412Z,17.61
2023-04-19T18:09:45.212Z,17.54
2023-04-19T18:12:14.856Z,17.38
2023-04-19T18:14:44.112Z,17.53
2023-04-19T18:17:13.595Z,17.07
2023-04-19T18:19:42.793Z,17.23
2023-04-19T18:22:12.368Z,16.77
2023-04-19T18:24:43.830Z,16.68
2023-04-19T18:27:14.752Z,17.01
2023-04-19T18:29:44.076Z,17.42
2023-04-19T18:32:13.719Z,17.35
2023-04-19T18:34:43.062Z,17.36
2023-04-19T18:37:17.192Z,17.42
2023-04-19T18:39:46.634Z,17.76
2023-04-19T18:42:17.559Z,17.84
2023-04-19T18:44:53.595Z,17.99
2023-04-19T18:47:26.545Z,17.91
2023-04-19T18:50:03.443Z,18.07
2023-04-19T18:52:34.613Z,18.11
2023-04-19T18:55:04.141Z,18.09
2023-04-19T18:57:35.677Z,17.96
2023-04-19T19:00:11.135Z,18.24
2023-04-19T19:02:41.687Z,18.39
2023-04-19T19:05:13.801Z,18.28
2023-04-19T19:07:43.947Z,18.34
2023-04-19T19:12:47.228Z,18.09
2023-04-19T19:15:16.632Z,18.13
2023-04-19T19:17:49.859Z,17.99
2023-04-19T19:20:20.659Z,17.99
2023-04-19T19:22:51.456Z,17.76
2023-04-19T19:25:21.095Z,17.64
2023-04-19T19:30:29.642Z,17.43
2023-04-19T19:32:59.086Z,17.16
2023-04-19T19:35:28.537Z,17.15
2023-04-19T19:37:58.135Z,17.71
2023-04-19T19:40:31.136Z,17.39
2023-04-19T19:43:04.160Z,17.14
2023-04-19T19:45:33.876Z,17.71
2023-04-19T19:48:03.628Z,17.78
2023-04-19T19:53:05.658Z,17.57
2023-04-19T19:55:34.997Z,17.45
2023-04-19T20:00:46.259Z,17.05
2023-04-19T20:03:32.779Z,17.29
2023-04-19T20:08:43.998Z,16.78
2023-04-19T20:11:13.844Z,16.83
2023-04-19T20:13:45.859Z,16.94
2023-04-19T20:16:18.819Z,16.49
2023-04-19T20:18:49.348Z,16.47
2023-04-19T20:21:20.568Z,16.52
2023-04-19T20:23:50.465Z,16.75
2023-04-19T20:26:19.820Z,16.72
2023-04-19T20:28:53.035Z,15.45
2023-04-19T20:31:29.693Z,15.40
2023-04-19T20:33:59.970Z,16.45
2023-04-19T20:36:31.953Z,16.78
2023-04-19T20:39:06.582Z,16.99
2023-04-19T20:41:36.250Z,17.48
2023-04-19T20:44:07.613Z,17.93
2023-04-19T20:46:36.997Z,18.05
2023-04-19T20:49:06.903Z,18.10
2023-04-19T20:51:36.148Z,17.46
2023-04-19T20:54:05.841Z,17.54
2023-04-19T20:56:35.144Z,17.92
2023-04-19T20:59:06.193Z,17.92
2023-04-19T21:01:35.683Z,18.16
2023-04-19T21:04:05.585Z,17.90
2023-04-19T21:06:34.864Z,17.69
2023-04-19T21:09:04.406Z,17.54
2023-04-19T21:11:33.666Z,17.67
2023-04-19T21:14:03.096Z,17.34
2023-04-19T21:16:33.861Z,17.06
2023-04-19T21:19:03.666Z,17.34
2023-04-19T21:21:33.043Z,17.06
2023-04-19T21:24:02.595Z,17.44
2023-04-19T21:26:31.856Z,17.45
2023-04-19T21:29:01.447Z,17.41
2023-04-19T21:31:32.120Z,17.73
2023-04-19T21:34:02.378Z,17.55
2023-04-19T21:36:31.866Z,17.57
2023-04-19T21:39:01.577Z,17.23
2023-04-19T21:41:31.009Z,17.39
2023-04-19T21:44:00.848Z,17.32
2023-04-19T21:46:30.229Z,17.45
2023-04-19T21:49:01.139Z,17.55
2023-04-19T21:51:30.276Z,17.40
2023-04-19T21:53:59.757Z,17.80
2023-04-19T21:56:28.985Z,17.92
2023-04-19T21:58:58.791Z,18.17
2023-04-19T22:01:28.119Z,18.08
2023-04-19T22:03:58.887Z,17.94
2023-04-19T22:06:29.640Z,17.92
2023-04-19T22:09:00.491Z,17.82
2023-04-19T22:11:30.217Z,18.33
2023-04-19T22:13:59.813Z,18.52
2023-04-19T22:16:30.296Z,18.36
2023-04-19T22:19:00.063Z,18.08
2023-04-19T22:21:32.881Z,18.37
2023-04-19T22:24:02.329Z,18.34
2023-04-19T22:26:33.056Z,18.17
2023-04-19T22:29:02.626Z,18.33
2023-04-19T22:31:31.844Z,18.27
2023-04-19T22:34:01.471Z,18.07
2023-04-19T22:36:31.974Z,18.25
2023-04-19T22:39:01.727Z,17.52
2023-04-19T22:41:30.832Z,18.19
2023-04-19T22:44:00.557Z,18.50
2023-04-19T22:46:29.744Z,18.61
2023-04-19T22:48:59.258Z,17.72
2023-04-19T22:51:29.470Z,17.54
2023-04-19T22:54:00.793Z,17.49
2023-04-19T22:56:30.686Z,17.70
2023-04-19T22:59:00.139Z,17.76
2023-04-19T23:01:29.537Z,17.98
2023-04-19T23:03:59.293Z,17.84
2023-04-19T23:06:29.510Z,17.96
2023-04-19T23:09:02.207Z,17.62
2023-04-19T23:11:31.670Z,18.03
2023-04-19T23:14:01.859Z,18.27
2023-04-19T23:16:33.490Z,17.85
2023-04-19T23:19:02.983Z,17.88
2023-04-19T23:21:32.193Z,17.99
2023-04-19T23:24:03.002Z,18.04
2023-04-19T23:26:32.060Z,18.08
2023-04-19T23:29:01.592Z,18.15
2023-04-19T23:31:30.743Z,18.15
2023-04-19T23:34:00.325Z,17.96
2023-04-19T23:36:29.427Z,17.97
2023-04-19T23:38:58.986Z,18.04
2023-04-19T23:41:29.756Z,18.15
2023-04-19T23:43:59.090Z,17.78
2023-04-19T23:46:28.618Z,17.81
2023-04-19T23:48:58.190Z,18.12
2023-04-19T23:51:27.941Z,18.05
2023-04-19T23:53:57.408Z,18.26
2023-04-19T23:56:26.524Z,18.48
2023-04-19T23:58:57.590Z,17.76
